createdAt,value
2019-04-11T00:02:17.403Z,30.27
2019-04-11T00:04:46.417Z,32.67
2019-04-11T00:07:16.154Z,31.90
2019-04-11T00:09:45.010Z,33.40
2019-04-11T00:12:14.522Z,34.37
2019-04-11T00:14:44.203Z,38.03
2019-04-11T00:17:17.509Z,40.43
2019-04-11T00:19:47.435Z,43.33
2019-04-11T00:22:17.301Z,45.00
2019-04-11T00:24:47.149Z,50.43
2019-04-11T00:27:17.132Z,51.50
2019-04-11T00:29:46.984Z,53.30
2019-04-11T00:32:17.035Z,54.27
2019-04-11T00:34:47.010Z,55.40
2019-04-11T00:37:16.902Z,55.00
2019-04-11T00:39:45.876Z,58.30
2019-04-11T00:42:14.618Z,58.23
2019-04-11T00:44:43.318Z,55.87
2019-04-11T00:47:15.148Z,53.07
2019-04-11T00:49:44.177Z,53.17
2019-04-11T00:52:13.981Z,52.07
2019-04-11T00:54:43.130Z,50.40
2019-04-11T00:57:12.780Z,50.83
2019-04-11T00:59:42.617Z,51.40
2019-04-11T01:02:15.522Z,48.83
2019-04-11T01:04:45.340Z,53.70
2019-04-11T01:07:14.515Z,56.67
2019-04-11T01:09:44.305Z,58.30
2019-04-11T01:12:13.215Z,63.50
2019-04-11T01:14:42.697Z,57.27
2019-04-11T01:17:17.058Z,56.00
2019-04-11T01:19:46.808Z,55.03
2019-04-11T01:22:16.205Z,62.93
2019-04-11T01:24:46.057Z,61.53
2019-04-11T01:27:16.059Z,57.37
2019-04-11T01:29:44.943Z,57.53
2019-04-11T01:32:14.640Z,57.13
2019-04-11T01:34:44.528Z,58.17
2019-04-11T01:37:13.394Z,56.30
2019-04-11T01:39:43.738Z,59.30
2019-04-11T01:42:13.216Z,56.03
2019-04-11T01:44:43.014Z,52.87
2019-04-11T01:47:15.018Z,51.77
2019-04-11T01:49:44.098Z,50.43
2019-04-11T01:52:13.926Z,50.47
2019-04-11T01:54:43.795Z,52.20
2019-04-11T01:57:13.777Z,48.53
2019-04-11T01:59:43.728Z,46.30
2019-04-11T02:02:17.112Z,45.70
2019-04-11T02:04:50.155Z,47.87
2019-04-11T02:07:18.876Z,46.07
2019-04-11T02:09:48.452Z,45.10
2019-04-11T02:12:18.240Z,46.17
2019-04-11T02:14:48.130Z,51.27
2019-04-11T02:17:16.890Z,46.30
2019-04-11T02:19:45.611Z,45.00
2019-04-11T02:22:15.987Z,54.33
2019-04-11T02:24:54.060Z,44.97
2019-04-11T02:27:25.888Z,43.63
2019-04-11T02:29:55.182Z,41.73
2019-04-11T02:32:25.510Z,43.60
2019-04-11T02:34:58.902Z,67.57
2019-04-11T02:37:26.354Z,126.10
2019-04-11T02:39:57.480Z,103.87
2019-04-11T02:42:27.483Z,83.70
2019-04-11T02:45:13.422Z,95.13
2019-04-11T02:47:31.832Z,57.10
2019-04-11T02:49:59.172Z,45.47
2019-04-11T02:52:28.268Z,40.70
2019-04-11T02:54:57.449Z,46.57
2019-04-11T02:57:26.516Z,48.93
2019-04-11T02:59:56.404Z,44.97
2019-04-11T03:02:26.634Z,50.77
2019-04-11T03:04:56.383Z,49.03
2019-04-11T03:07:25.865Z,43.13
2019-04-11T03:09:56.441Z,42.87
2019-04-11T03:12:25.059Z,54.97
2019-04-11T03:15:09.317Z,44.87
2019-04-11T03:17:30.773Z,40.70
2019-04-11T03:20:09.231Z,38.63
2019-04-11T03:22:26.948Z,41.40
2019-04-11T03:24:58.319Z,41.70
2019-04-11T03:27:28.675Z,41.13
2019-04-11T03:29:58.062Z,56.37
2019-04-11T03:35:50.962Z,57.90
2019-04-11T03:37:55.128Z,49.33
2019-04-11T03:40:22.662Z,43.87
2019-04-11T03:42:45.158Z,40.07
2019-04-11T03:45:23.945Z,39.53
2019-04-11T03:47:43.516Z,40.83
2019-04-11T03:50:08.541Z,44.83
2019-04-11T03:52:34.804Z,37.53
2019-04-11T03:55:08.389Z,49.67
2019-04-11T03:57:37.310Z,42.33
2019-04-11T04:00:07.558Z,39.87
2019-04-11T04:02:37.189Z,39.80
2019-04-11T04:05:08.776Z,42.63
2019-04-11T04:07:40.107Z,39.57
2019-04-11T04:10:18.399Z,37.30
2019-04-11T04:12:48.100Z,41.03
2019-04-11T04:15:35.765Z,57.87
2019-04-11T04:18:03.533Z,50.17
2019-04-11T04:20:53.189Z,38.17
2019-04-11T04:23:30.013Z,35.93
2019-04-11T04:26:01.107Z,43.77
2019-04-11T04:28:31.806Z,54.80
2019-04-11T04:31:02.092Z,93.23
2019-04-11T04:33:33.023Z,73.87
2019-04-11T04:36:02.396Z,60.20
2019-04-11T04:38:33.772Z,43.83
2019-04-11T04:41:16.868Z,32.77
2019-04-11T04:43:36.401Z,40.37
2019-04-11T04:46:25.033Z,34.43
2019-04-11T04:48:37.846Z,34.07
2019-04-11T04:51:09.109Z,32.87
2019-04-11T04:53:36.934Z,45.03
2019-04-11T04:56:06.773Z,51.13
2019-04-11T04:58:35.743Z,57.37
2019-04-11T05:01:06.890Z,38.53
2019-04-11T05:03:34.949Z,69.17
2019-04-11T05:06:04.249Z,49.23
2019-04-11T05:08:34.691Z,42.10
2019-04-11T05:11:04.508Z,40.27
2019-04-11T05:13:34.422Z,40.07
2019-04-11T05:16:14.530Z,44.63
2019-04-11T05:18:34.312Z,45.27
2019-04-11T05:21:03.320Z,40.57
2019-04-11T05:23:32.041Z,40.03
2019-04-11T05:26:01.614Z,33.60
2019-04-11T05:28:31.784Z,27.30
2019-04-11T05:31:00.622Z,27.23
2019-04-11T05:33:29.463Z,31.00
2019-04-11T05:35:58.529Z,30.80
2019-04-11T05:38:27.570Z,30.27
2019-04-11T05:40:56.641Z,32.50
2019-04-11T05:43:29.301Z,33.90
2019-04-11T05:45:56.752Z,32.37
2019-04-11T05:48:36.844Z,30.00
2019-04-11T05:51:06.833Z,31.50
2019-04-11T05:53:36.974Z,35.00
2019-04-11T05:56:16.722Z,32.60
2019-04-11T05:58:47.364Z,48.13
2019-04-11T06:01:24.378Z,29.90
2019-04-11T06:03:55.526Z,38.03
2019-04-11T06:06:31.970Z,42.70
2019-04-11T06:09:04.060Z,29.27
2019-04-11T06:11:34.919Z,28.50
2019-04-11T06:14:11.437Z,25.23
2019-04-11T06:16:47.278Z,30.23
2019-04-11T06:19:22.863Z,23.73
2019-04-11T06:22:00.282Z,28.27
2019-04-11T06:24:40.609Z,23.10
2019-04-11T06:27:16.695Z,32.10
2019-04-11T06:29:47.418Z,30.90
2019-04-11T06:32:27.856Z,30.83
2019-04-11T06:35:04.182Z,30.17
2019-04-11T06:37:52.592Z,30.67
2019-04-11T06:40:32.679Z,29.30
2019-04-11T06:43:20.306Z,23.83
2019-04-11T06:45:50.762Z,23.30
2019-04-11T06:48:30.035Z,20.77
2019-04-11T06:51:06.106Z,20.50
2019-04-11T06:53:36.515Z,18.37
2019-04-11T06:56:06.858Z,14.30
2019-04-11T06:58:39.855Z,16.20
2019-04-11T07:01:16.024Z,14.20
2019-04-11T07:03:49.270Z,16.47
2019-04-11T07:06:23.553Z,13.87
2019-04-11T07:09:10.728Z,14.60
2019-04-11T07:11:53.128Z,13.37
2019-04-11T07:14:23.523Z,13.17
2019-04-11T07:17:15.408Z,15.37
2019-04-11T07:19:48.797Z,17.83
2019-04-11T07:22:35.278Z,14.63
2019-04-11T07:25:22.663Z,14.50
2019-04-11T07:28:02.140Z,16.27
2019-04-11T07:30:49.502Z,18.53
2019-04-11T07:33:33.261Z,13.97
2019-04-11T07:36:20.994Z,13.10
2019-04-11T07:39:03.667Z,16.67
2019-04-11T07:41:38.547Z,17.60
2019-04-11T07:44:17.724Z,16.30
2019-04-11T07:47:13.628Z,13.20
2019-04-11T07:49:39.331Z,13.63
2019-04-11T07:52:17.594Z,12.87
2019-04-11T07:54:46.320Z,14.60
2019-04-11T07:57:17.171Z,14.20
2019-04-11T08:00:03.641Z,13.03
2019-04-11T08:02:50.498Z,12.03
2019-04-11T08:05:37.317Z,12.03
2019-04-11T08:08:24.150Z,11.33
2019-04-11T08:11:03.393Z,11.13
2019-04-11T08:13:34.645Z,13.20
2019-04-11T08:16:22.383Z,9.13
2019-04-11T08:19:03.489Z,8.23
2019-04-11T08:21:50.425Z,7.93
2019-04-11T08:24:29.864Z,7.50
2019-04-11T08:27:17.563Z,6.47
2019-04-11T08:29:48.855Z,9.17
2019-04-11T08:32:25.455Z,9.03
2019-04-11T08:35:02.074Z,6.00
2019-04-11T08:37:48.555Z,6.07
2019-04-11T08:40:19.849Z,4.40
2019-04-11T08:42:50.896Z,4.97
2019-04-11T08:45:21.577Z,3.43
2019-04-11T08:47:54.614Z,4.87
2019-04-11T08:50:23.684Z,5.00
2019-04-11T08:52:56.739Z,4.33
2019-04-11T08:55:27.340Z,3.63
2019-04-11T08:57:58.327Z,2.97
2019-04-11T09:00:34.852Z,3.97
2019-04-11T09:03:05.179Z,3.47
2019-04-11T09:05:44.473Z,3.60
2019-04-11T09:08:30.167Z,2.97
2019-04-11T09:11:17.017Z,6.03
2019-04-11T09:13:53.585Z,2.70
2019-04-11T09:16:39.637Z,2.97
2019-04-11T09:19:10.469Z,3.23
2019-04-11T09:21:56.947Z,2.70
2019-04-11T09:24:39.259Z,4.37
2019-04-11T09:27:22.596Z,7.27
2019-04-11T09:29:58.962Z,9.07
2019-04-11T09:32:46.519Z,12.27
2019-04-11T09:35:22.665Z,11.13
2019-04-11T09:37:51.805Z,9.10
2019-04-11T09:40:39.587Z,9.60
2019-04-11T09:43:17.895Z,8.20
2019-04-11T09:46:04.627Z,8.97
2019-04-11T09:48:50.514Z,10.90
2019-04-11T09:51:38.035Z,8.63
2019-04-11T09:54:26.784Z,7.67
2019-04-11T09:57:06.017Z,7.83
2019-04-11T09:59:49.627Z,7.37
2019-04-11T10:02:20.970Z,7.67
2019-04-11T10:04:52.250Z,6.80
2019-04-11T10:07:28.575Z,6.30
2019-04-11T10:10:04.765Z,6.80
2019-04-11T10:12:52.060Z,8.30
2019-04-11T10:15:23.252Z,6.30
2019-04-11T10:18:25.329Z,8.67
2019-04-11T10:20:45.601Z,8.67
2019-04-11T10:23:32.759Z,9.33
2019-04-11T10:26:03.412Z,8.43
2019-04-11T10:28:43.910Z,8.13
2019-04-11T10:31:12.752Z,8.57
2019-04-11T10:33:58.011Z,7.63
2019-04-11T10:36:29.349Z,7.27
2019-04-11T10:39:15.394Z,6.67
2019-04-11T10:41:46.307Z,6.20
2019-04-11T10:44:25.735Z,6.23
2019-04-11T10:47:02.059Z,6.77
2019-04-11T10:49:48.743Z,5.20
2019-04-11T10:52:28.781Z,5.30
2019-04-11T10:55:05.247Z,5.50
2019-04-11T10:57:38.377Z,6.40
2019-04-11T11:00:18.911Z,4.03
2019-04-11T11:05:47.233Z,4.33
2019-04-11T11:08:33.323Z,5.13
2019-04-11T11:11:07.853Z,4.80
2019-04-11T11:13:39.527Z,6.33
2019-04-11T11:16:10.238Z,4.10
2019-04-11T11:19:24.593Z,3.50
2019-04-11T11:21:30.568Z,3.47
2019-04-11T11:24:05.388Z,3.30
2019-04-11T11:26:33.752Z,3.33
2019-04-11T11:29:15.789Z,3.10
2019-04-11T11:31:49.381Z,2.10
2019-04-11T11:34:23.677Z,1.43
2019-04-11T11:36:54.973Z,1.23
2019-04-11T11:39:43.582Z,1.10
2019-04-11T11:42:30.430Z,2.00
2019-04-11T11:45:02.377Z,1.30
2019-04-11T11:47:51.139Z,1.30
2019-04-11T11:50:23.419Z,1.87
2019-04-11T11:53:12.948Z,2.00
2019-04-11T11:55:41.406Z,3.53
2019-04-11T11:58:23.710Z,2.60
2019-04-11T12:00:56.909Z,2.07
2019-04-11T12:03:30.993Z,2.57
2019-04-11T12:06:05.297Z,1.90
2019-04-11T12:08:46.589Z,7.30
2019-04-11T12:11:18.778Z,2.90
2019-04-11T12:13:49.116Z,3.40
2019-04-11T12:16:21.601Z,1.67
2019-04-11T12:19:04.624Z,7.50
2019-04-11T12:21:35.170Z,10.03
2019-04-11T12:24:07.057Z,10.60
2019-04-11T12:26:45.782Z,10.23
2019-04-11T12:29:32.252Z,4.60
2019-04-11T12:32:02.751Z,6.93
2019-04-11T12:34:33.024Z,5.30
2019-04-11T12:37:02.595Z,8.50
2019-04-11T12:39:51.176Z,2.23
2019-04-11T12:42:21.448Z,5.27
2019-04-11T12:45:07.777Z,14.90
2019-04-11T12:47:38.630Z,8.77
2019-04-11T12:50:28.020Z,4.80
2019-04-11T12:53:04.456Z,5.90
2019-04-11T12:55:50.058Z,4.60
2019-04-11T12:58:20.392Z,3.47
2019-04-11T13:01:02.516Z,6.23
2019-04-11T13:03:48.979Z,6.03
2019-04-11T13:06:35.847Z,4.63
2019-04-11T13:09:15.292Z,4.10
2019-04-11T13:11:48.272Z,3.87
2019-04-11T13:14:21.607Z,9.17
2019-04-11T13:16:51.945Z,3.67
2019-04-11T13:19:31.439Z,6.77
2019-04-11T13:22:01.722Z,4.30
2019-04-11T13:24:40.989Z,3.00
2019-04-11T13:27:20.422Z,4.43
2019-04-11T13:30:05.689Z,11.77
2019-04-11T13:32:35.971Z,9.27
2019-04-11T13:35:14.585Z,18.20
2019-04-11T13:37:56.892Z,31.30
2019-04-11T13:40:30.537Z,14.00
2019-04-11T13:43:16.860Z,15.00
2019-04-11T13:46:02.191Z,16.50
2019-04-11T13:48:48.689Z,11.47
2019-04-11T13:51:31.458Z,6.43
2019-04-11T13:54:19.129Z,25.93
2019-04-11T13:57:05.544Z,38.07
2019-04-11T13:59:35.838Z,28.20
2019-04-11T14:02:15.203Z,45.43
2019-04-11T14:04:46.327Z,10.00
2019-04-11T14:07:21.268Z,27.50
2019-04-11T14:09:51.525Z,12.50
2019-04-11T14:12:20.267Z,7.47
2019-04-11T14:14:51.970Z,4.23
2019-04-11T14:17:30.963Z,9.33
2019-04-11T14:20:28.610Z,20.53
2019-04-11T14:22:49.447Z,22.13
2019-04-11T14:25:23.478Z,17.27
2019-04-11T14:27:53.772Z,18.63
2019-04-11T14:30:40.174Z,16.97
2019-04-11T14:33:08.884Z,5.90
2019-04-11T14:35:57.669Z,6.37
2019-04-11T14:38:27.144Z,6.03
2019-04-11T14:41:01.766Z,5.30
2019-04-11T14:43:35.576Z,6.73
2019-04-11T14:46:12.409Z,4.37
2019-04-11T14:48:42.717Z,4.90
2019-04-11T14:51:15.952Z,2.70
2019-04-11T14:54:03.450Z,8.13
2019-04-11T14:56:33.737Z,34.50
2019-04-11T14:59:07.005Z,21.30
2019-04-11T15:01:35.817Z,48.97
2019-04-11T15:04:06.107Z,41.20
2019-04-11T15:06:36.402Z,24.93
2019-04-11T15:09:16.872Z,4.20
2019-04-11T15:11:50.256Z,4.30
2019-04-11T15:14:36.916Z,6.03
2019-04-11T15:17:10.006Z,10.67
2019-04-11T15:19:40.276Z,6.10
2019-04-11T15:22:27.102Z,8.57
2019-04-11T15:25:13.720Z,8.90
2019-04-11T15:27:47.080Z,4.93
2019-04-11T15:30:22.356Z,4.00
2019-04-11T15:32:55.398Z,15.07
2019-04-11T15:35:24.110Z,6.20
2019-04-11T15:38:15.330Z,6.47
2019-04-11T15:40:44.937Z,3.80
2019-04-11T15:43:31.674Z,4.67
2019-04-11T15:46:02.063Z,4.00
2019-04-11T15:48:35.098Z,8.20
2019-04-11T15:51:17.396Z,4.37
2019-04-11T15:53:47.678Z,6.80
2019-04-11T15:56:37.857Z,6.03
2019-04-11T15:59:06.446Z,4.23
2019-04-11T16:01:39.926Z,4.00
2019-04-11T16:04:10.203Z,4.50
2019-04-11T16:06:40.545Z,8.07
2019-04-11T16:09:11.959Z,8.50
2019-04-11T16:11:58.523Z,8.07
2019-04-11T16:14:27.251Z,18.03
2019-04-11T16:16:57.535Z,25.73
2019-04-11T16:19:36.724Z,22.80
2019-04-11T16:22:16.218Z,27.77
2019-04-11T16:24:46.553Z,9.70
2019-04-11T16:27:17.333Z,10.70
2019-04-11T16:29:50.376Z,5.27
2019-04-11T16:32:19.490Z,6.77
2019-04-11T16:34:54.346Z,9.93
2019-04-11T16:37:20.198Z,14.17
2019-04-11T16:40:06.621Z,7.87
2019-04-11T16:42:36.963Z,6.10
2019-04-11T16:45:25.730Z,4.43
2019-04-11T16:48:03.792Z,6.47
2019-04-11T16:50:32.492Z,9.47
2019-04-11T16:53:01.208Z,3.70
2019-04-11T16:55:29.927Z,4.70
2019-04-11T16:57:58.918Z,8.67
2019-04-11T17:00:27.649Z,8.53
2019-04-11T17:02:56.353Z,5.00
2019-04-11T17:05:26.829Z,3.53
2019-04-11T17:08:09.220Z,2.90
2019-04-11T17:10:57.532Z,3.10
2019-04-11T17:13:26.758Z,16.50
2019-04-11T17:15:55.569Z,8.27
2019-04-11T17:18:24.273Z,3.97
2019-04-11T17:20:52.979Z,4.10
2019-04-11T17:23:21.704Z,3.70
2019-04-11T17:25:52.898Z,6.13
2019-04-11T17:28:23.105Z,5.33
2019-04-11T17:30:55.062Z,4.00
2019-04-11T17:33:21.774Z,11.97
2019-04-11T17:35:50.499Z,6.50
2019-04-11T17:38:19.215Z,4.00
2019-04-11T17:40:47.969Z,6.30
2019-04-11T17:43:16.671Z,5.03
2019-04-11T17:45:45.372Z,4.60
2019-04-11T17:48:18.174Z,3.60
2019-04-11T17:50:46.888Z,4.70
2019-04-11T17:53:18.930Z,5.20
2019-04-11T17:55:47.739Z,6.23
2019-04-11T17:58:16.447Z,3.80
2019-04-11T18:00:52.709Z,5.73
2019-04-11T18:03:21.425Z,5.03
2019-04-11T18:05:50.180Z,4.80
2019-04-11T18:08:20.194Z,10.23
2019-04-11T18:10:49.744Z,11.10
2019-04-11T18:13:18.691Z,17.53
2019-04-11T18:15:47.410Z,22.87
2019-04-11T18:18:19.606Z,12.80
2019-04-11T18:20:48.321Z,17.10
2019-04-11T18:23:19.633Z,7.30
2019-04-11T18:25:48.928Z,5.40
2019-04-11T18:28:21.692Z,5.67
2019-04-11T18:30:48.889Z,7.30
2019-04-11T18:33:17.598Z,7.33
2019-04-11T18:35:46.307Z,5.27
2019-04-11T18:38:17.392Z,6.60
2019-04-11T18:40:46.110Z,7.70
2019-04-11T18:43:18.855Z,7.67
2019-04-11T18:45:47.564Z,6.90
2019-04-11T18:48:16.274Z,3.40
2019-04-11T18:50:44.984Z,2.60
2019-04-11T18:53:13.689Z,1.83
2019-04-11T18:55:42.449Z,10.40
2019-04-11T18:58:11.157Z,8.90
2019-04-11T19:00:39.870Z,10.07
2019-04-11T19:03:17.595Z,12.93
2019-04-11T19:05:46.297Z,8.23
2019-04-11T19:08:17.625Z,8.60
2019-04-11T19:10:46.305Z,5.40
2019-04-11T19:13:16.975Z,3.33
2019-04-11T19:15:46.379Z,2.90
2019-04-11T19:18:16.404Z,5.07
2019-04-11T19:20:50.065Z,6.10
2019-04-11T19:23:16.181Z,5.97
2019-04-11T19:25:45.299Z,1.53
2019-04-11T19:28:18.758Z,1.47
2019-04-11T19:30:47.458Z,1.60
2019-04-11T19:33:20.718Z,1.20
2019-04-11T19:35:49.461Z,1.37
2019-04-11T19:38:28.804Z,1.20
2019-04-11T19:40:57.569Z,1.40
2019-04-11T19:43:26.283Z,1.30
2019-04-11T19:45:54.987Z,1.27
2019-04-11T19:48:25.209Z,1.70
2019-04-11T19:50:54.171Z,1.80
2019-04-11T19:53:22.895Z,3.37
2019-04-11T19:55:56.127Z,4.97
2019-04-11T19:58:26.407Z,2.97
2019-04-11T20:00:55.173Z,9.03
2019-04-11T20:03:24.251Z,6.60
2019-04-11T20:05:54.669Z,4.90
2019-04-11T20:08:23.391Z,15.67
2019-04-11T20:10:52.104Z,9.23
2019-04-11T20:13:20.865Z,1.87
2019-04-11T20:15:50.656Z,1.43
2019-04-11T20:18:22.191Z,2.13
2019-04-11T20:20:52.191Z,7.07
2019-04-11T20:23:20.511Z,4.63
2019-04-11T20:25:50.000Z,6.60
2019-04-11T20:28:19.962Z,12.37
2019-04-11T20:30:49.446Z,5.97
2019-04-11T20:33:27.091Z,7.40
2019-04-11T20:35:49.434Z,7.67
2019-04-11T20:38:18.210Z,7.27
2019-04-11T20:40:46.926Z,7.47
2019-04-11T20:43:15.637Z,8.53
2019-04-11T20:45:45.157Z,7.10
2019-04-11T20:48:13.877Z,5.80
2019-04-11T20:50:42.633Z,6.87
2019-04-11T20:53:13.167Z,11.40
2019-04-11T20:55:41.789Z,12.23
2019-04-11T20:58:26.690Z,11.57
2019-04-11T21:00:50.744Z,7.80
2019-04-11T21:03:20.413Z,4.80
2019-04-11T21:05:49.116Z,4.67
2019-04-11T21:08:17.827Z,4.13
2019-04-11T21:10:46.545Z,4.40
2019-04-11T21:13:15.257Z,9.57
2019-04-11T21:15:44.021Z,8.03
2019-04-11T21:18:12.726Z,8.47
2019-04-11T21:20:41.442Z,7.30
2019-04-11T21:23:24.484Z,7.83
2019-04-11T21:25:47.101Z,7.13
2019-04-11T21:28:19.859Z,5.63
2019-04-11T21:30:48.573Z,5.23
2019-04-11T21:33:17.435Z,6.90
2019-04-11T21:35:46.151Z,6.00
2019-04-11T21:38:14.869Z,5.37
2019-04-11T21:40:43.630Z,3.77
2019-04-11T21:43:12.337Z,5.10
2019-04-11T21:45:41.039Z,4.60
2019-04-11T21:48:15.797Z,3.60
2019-04-11T21:50:44.505Z,2.93
2019-04-11T21:53:15.932Z,3.27
2019-04-11T21:55:47.181Z,4.17
2019-04-11T21:58:19.233Z,3.80
2019-04-11T22:00:48.342Z,4.33
2019-04-11T22:03:17.050Z,4.17
2019-04-11T22:05:45.793Z,4.53
2019-04-11T22:08:14.502Z,4.23
2019-04-11T22:10:43.206Z,4.33
2019-04-11T22:13:15.863Z,4.27
2019-04-11T22:15:44.578Z,4.47
2019-04-11T22:18:16.740Z,4.43
2019-04-11T22:20:45.912Z,7.53
2019-04-11T22:23:14.681Z,6.67
2019-04-11T22:25:43.398Z,6.97
2019-04-11T22:28:12.104Z,5.40
2019-04-11T22:30:40.857Z,5.93
2019-04-11T22:33:34.251Z,4.77
2019-04-11T22:36:03.001Z,4.13
2019-04-11T22:38:31.707Z,3.70
2019-04-11T22:41:02.174Z,3.90
2019-04-11T22:43:30.850Z,3.53
2019-04-11T22:45:59.553Z,3.87
2019-04-11T22:48:28.295Z,3.50
2019-04-11T22:50:57.004Z,4.10
2019-04-11T22:53:25.713Z,4.20
2019-04-11T22:55:54.424Z,5.00
2019-04-11T22:58:23.128Z,3.90
2019-04-11T23:00:51.882Z,3.40
2019-04-11T23:03:28.169Z,2.90
2019-04-11T23:05:56.915Z,4.30
2019-04-11T23:08:25.635Z,3.40
2019-04-11T23:10:54.344Z,3.90
2019-04-11T23:13:23.055Z,3.90
2019-04-11T23:15:51.755Z,3.67
2019-04-11T23:18:20.516Z,3.20
2019-04-11T23:20:49.223Z,3.30
2019-04-11T23:23:17.924Z,2.90
2019-04-11T23:25:46.640Z,3.10
2019-04-11T23:28:16.397Z,3.07
2019-04-11T23:30:49.486Z,2.70
2019-04-11T23:33:18.958Z,2.60
2019-04-11T23:35:48.818Z,2.90
2019-04-11T23:38:23.589Z,2.70
2019-04-11T23:40:51.905Z,2.80
2019-04-11T23:43:20.728Z,3.43
2019-04-11T23:45:51.181Z,3.53
2019-04-11T23:48:23.729Z,4.17
2019-04-11T23:50:50.295Z,3.30
2019-04-11T23:53:18.999Z,2.80
2019-04-11T23:55:47.755Z,3.23
2019-04-11T23:58:16.459Z,3.80
